Davenport Center, NY (13751)

10:39 AM EST on December 03, 2016 (GMT -0500)
MAS | | Change Station

Elev 1305 ft 42.44 °N, 74.91 °W | Updated 3 seconds ago

Overcast
Overcast
32.3 °F
Feels Like 23 °F
N
11.4
Wind Variable Wind from WNW
Gusts 32.2 mph

Today
High -- | Low -- °F
--% Chance of Precip.
Yesterday
High -- | Low -- °F
Precip. -- in
Pressure 30.01 in
Visibility 10.0 miles
Clouds Mostly Cloudy 2700 ft
Overcast 3400 ft
Windchill 23 °F
Dew Point 31 °F
Humidity 95%
Rainfall 0.00 in
Snow Depth Not available.
7:12 AM 4:27 PM
Waxing Crescent, 15% visible
METAR KMSV 031535Z AUTO 30017G22KT 10SM BKN027 OVC034 02/M04 A3001 RMK AO1
Pressure 30.01 in
Visibility 10.0 miles
Clouds Mostly Cloudy 2700 ft
Overcast 3400 ft
Windchill 23 °F
Dew Point 31 °F
Humidity 95%
Rainfall 0.00 in
Snow Depth Not available.
7:12 AM 4:27 PM
Waxing Crescent, 15% visible
METAR KMSV 031535Z AUTO 30017G22KT 10SM BKN027 OVC034 02/M04 A3001 RMK AO1

10-Day Weather Forecast

Almanac

Astronomy

Dec. 03, 2016 Rise Set
Actual Time
Civil Twilight
Nautical Twilight
Astronomical Twilight
Moon
Length of Visible Light
Length of Day
Tomorrow will be .
, % of the Moon is Illuminated

Today's Extremes

State Highs State Lows

Community

WunderPhotos

Upload Photos

1,955,425 photos uploaded!

WunderBlog® & News

Nearby

Air Quality

  Air Quality AQ Index Pollutant
Not available.

Snow Depth

Station Depth Elevation

Earthquake Activity

City Distance Mag. Time & Date
Minimum magnitude displayed is 2.5.

Coastal Water Temperatures

Place Temperature

Stations

Nearby Weather Stations

Station Location Temp. Windchill Dew Point Humidity Wind Precip. Elev Updated Type
                   

Watches & Warnings

There are currently no watches in effect.